sensor_id;sensor_type;location;lat;lon;timestamp;temperature;humidity
35894;DHT22;21994;48.204;16.516;2023-10-13T00:00:18;16.10;99.90
35894;DHT22;21994;48.204;16.516;2023-10-13T00:02:58;16.10;99.90
35894;DHT22;21994;48.204;16.516;2023-10-13T00:05:26;16.10;99.90
35894;DHT22;21994;48.204;16.516;2023-10-13T00:07:53;16.20;99.90
35894;DHT22;21994;48.204;16.516;2023-10-13T00:10:19;16.30;99.90
35894;DHT22;21994;48.204;16.516;2023-10-13T00:12:45;16.30;99.90
35894;DHT22;21994;48.204;16.516;2023-10-13T00:15:18;16.20;99.90
35894;DHT22;21994;48.204;16.516;2023-10-13T00:17:46;16.10;99.90
35894;DHT22;21994;48.204;16.516;2023-10-13T00:20:12;16.20;99.90
35894;DHT22;21994;48.204;16.516;2023-10-13T00:22:53;16.40;99.90
35894;DHT22;21994;48.204;16.516;2023-10-13T00:25:22;16.60;99.90
35894;DHT22;21994;48.204;16.516;2023-10-13T00:27:52;16.60;99.90
35894;DHT22;21994;48.204;16.516;2023-10-13T00:30:18;16.60;99.90
35894;DHT22;21994;48.204;16.516;2023-10-13T00:32:59;16.60;99.90
35894;DHT22;21994;48.204;16.516;2023-10-13T00:35:26;16.70;99.90
35894;DHT22;21994;48.204;16.516;2023-10-13T00:38:02;16.60;99.90
35894;DHT22;21994;48.204;16.516;2023-10-13T00:40:42;16.60;99.90
35894;DHT22;21994;48.204;16.516;2023-10-13T00:43:19;16.60;99.90
35894;DHT22;21994;48.204;16.516;2023-10-13T00:45:53;16.70;99.90
35894;DHT22;21994;48.204;16.516;2023-10-13T00:48:29;16.80;99.90
35894;DHT22;21994;48.204;16.516;2023-10-13T00:51:03;16.70;99.90
35894;DHT22;21994;48.204;16.516;2023-10-13T00:53:34;16.70;99.90
35894;DHT22;21994;48.204;16.516;2023-10-13T00:56:03;16.70;99.90
35894;DHT22;21994;48.204;16.516;2023-10-13T00:58:35;16.80;99.90
35894;DHT22;21994;48.204;16.516;2023-10-13T01:01:05;16.80;99.90
35894;DHT22;21994;48.204;16.516;2023-10-13T01:03:49;16.80;99.90
35894;DHT22;21994;48.204;16.516;2023-10-13T01:06:21;16.70;99.90
35894;DHT22;21994;48.204;16.516;2023-10-13T01:09:05;16.70;99.90
35894;DHT22;21994;48.204;16.516;2023-10-13T01:11:41;16.60;99.90
35894;DHT22;21994;48.204;16.516;2023-10-13T01:14:11;16.70;99.90
35894;DHT22;21994;48.204;16.516;2023-10-13T01:16:38;16.70;99.90
35894;DHT22;21994;48.204;16.516;2023-10-13T01:19:10;16.60;99.90
35894;DHT22;21994;48.204;16.516;2023-10-13T01:21:38;16.80;99.90
35894;DHT22;21994;48.204;16.516;2023-10-13T01:24:06;16.80;99.90
35894;DHT22;21994;48.204;16.516;2023-10-13T01:26:34;16.60;99.90
35894;DHT22;21994;48.204;16.516;2023-10-13T01:29:07;16.50;99.90
35894;DHT22;21994;48.204;16.516;2023-10-13T01:31:38;16.60;99.90
35894;DHT22;21994;48.204;16.516;2023-10-13T01:34:14;16.80;99.90
35894;DHT22;21994;48.204;16.516;2023-10-13T01:36:50;16.70;99.90
35894;DHT22;21994;48.204;16.516;2023-10-13T01:39:17;16.40;99.90
35894;DHT22;21994;48.204;16.516;2023-10-13T01:41:44;16.30;99.90
35894;DHT22;21994;48.204;16.516;2023-10-13T01:44:10;16.30;99.90
35894;DHT22;21994;48.204;16.516;2023-10-13T01:46:40;16.20;99.90
35894;DHT22;21994;48.204;16.516;2023-10-13T01:49:07;16.30;99.90
35894;DHT22;21994;48.204;16.516;2023-10-13T01:51:34;16.40;99.90
35894;DHT22;21994;48.204;16.516;2023-10-13T01:53:59;16.30;99.90
35894;DHT22;21994;48.204;16.516;2023-10-13T01:56:28;16.20;99.90
35894;DHT22;21994;48.204;16.516;2023-10-13T01:58:56;16.20;99.90
35894;DHT22;21994;48.204;16.516;2023-10-13T02:01:22;16.20;99.90
35894;DHT22;21994;48.204;16.516;2023-10-13T02:03:57;16.10;99.90
35894;DHT22;21994;48.204;16.516;2023-10-13T02:06:29;16.20;99.90
35894;DHT22;21994;48.204;16.516;2023-10-13T02:09:01;16.10;99.90
35894;DHT22;21994;48.204;16.516;2023-10-13T02:11:47;16.10;99.90
35894;DHT22;21994;48.204;16.516;2023-10-13T02:14:13;16.20;99.90
35894;DHT22;21994;48.204;16.516;2023-10-13T02:16:42;16.20;99.90
35894;DHT22;21994;48.204;16.516;2023-10-13T02:19:12;16.30;99.90
35894;DHT22;21994;48.204;16.516;2023-10-13T02:21:41;16.40;99.90
35894;DHT22;21994;48.204;16.516;2023-10-13T02:24:09;16.30;99.90
35894;DHT22;21994;48.204;16.516;2023-10-13T02:26:46;16.30;99.90
35894;DHT22;21994;48.204;16.516;2023-10-13T02:29:12;16.30;99.90
35894;DHT22;21994;48.204;16.516;2023-10-13T02:31:42;16.30;99.90
35894;DHT22;21994;48.204;16.516;2023-10-13T02:34:20;16.30;99.90
35894;DHT22;21994;48.204;16.516;2023-10-13T02:36:48;16.40;99.90
35894;DHT22;21994;48.204;16.516;2023-10-13T02:39:17;16.40;99.90
35894;DHT22;21994;48.204;16.516;2023-10-13T02:41:51;16.30;99.90
35894;DHT22;21994;48.204;16.516;2023-10-13T02:44:18;16.30;99.90
35894;DHT22;21994;48.204;16.516;2023-10-13T02:46:54;16.40;99.90
35894;DHT22;21994;48.204;16.516;2023-10-13T02:49:25;16.30;99.90
35894;DHT22;21994;48.204;16.516;2023-10-13T02:51:52;16.20;99.90
35894;DHT22;21994;48.204;16.516;2023-10-13T02:54:21;16.10;99.90
35894;DHT22;21994;48.204;16.516;2023-10-13T02:56:47;16.10;99.90
35894;DHT22;21994;48.204;16.516;2023-10-13T02:59:25;16.10;99.90
35894;DHT22;21994;48.204;16.516;2023-10-13T03:02:04;16.10;99.90
35894;DHT22;21994;48.204;16.516;2023-10-13T03:04:48;16.10;99.90
35894;DHT22;21994;48.204;16.516;2023-10-13T03:07:15;16.10;99.90
35894;DHT22;21994;48.204;16.516;2023-10-13T03:09:41;16.00;99.90
35894;DHT22;21994;48.204;16.516;2023-10-13T03:12:18;15.90;99.90
35894;DHT22;21994;48.204;16.516;2023-10-13T03:14:45;16.00;99.90
35894;DHT22;21994;48.204;16.516;2023-10-13T03:17:14;15.90;99.90
35894;DHT22;21994;48.204;16.516;2023-10-13T03:19:46;15.90;99.90
35894;DHT22;21994;48.204;16.516;2023-10-13T03:22:15;15.90;99.90
35894;DHT22;21994;48.204;16.516;2023-10-13T03:24:42;15.90;99.90
35894;DHT22;21994;48.204;16.516;2023-10-13T03:29:42;15.80;99.90
35894;DHT22;21994;48.204;16.516;2023-10-13T03:32:09;15.80;99.90
35894;DHT22;21994;48.204;16.516;2023-10-13T03:34:38;15.80;99.90
35894;DHT22;21994;48.204;16.516;2023-10-13T03:37:17;15.80;99.90
35894;DHT22;21994;48.204;16.516;2023-10-13T03:39:44;15.80;99.90
35894;DHT22;21994;48.204;16.516;2023-10-13T03:42:10;15.90;99.90
35894;DHT22;21994;48.204;16.516;2023-10-13T03:44:47;15.80;99.90
35894;DHT22;21994;48.204;16.516;2023-10-13T03:47:13;15.70;99.90
35894;DHT22;21994;48.204;16.516;2023-10-13T03:49:52;15.70;99.90
35894;DHT22;21994;48.204;16.516;2023-10-13T03:52:39;15.70;99.90
35894;DHT22;21994;48.204;16.516;2023-10-13T03:55:05;15.70;99.90
35894;DHT22;21994;48.204;16.516;2023-10-13T03:57:32;15.70;99.90
35894;DHT22;21994;48.204;16.516;2023-10-13T04:00:06;15.70;99.90
35894;DHT22;21994;48.204;16.516;2023-10-13T04:02:35;15.70;99.90
35894;DHT22;21994;48.204;16.516;2023-10-13T04:05:02;15.70;99.90
35894;DHT22;21994;48.204;16.516;2023-10-13T04:07:33;15.60;99.90
35894;DHT22;21994;48.204;16.516;2023-10-13T04:10:06;15.70;99.90
35894;DHT22;21994;48.204;16.516;2023-10-13T04:13:04;15.70;99.90
35894;DHT22;21994;48.204;16.516;2023-10-13T04:15:45;15.70;99.90
35894;DHT22;21994;48.204;16.516;2023-10-13T04:18:29;15.70;99.90
35894;DHT22;21994;48.204;16.516;2023-10-13T04:21:15;15.80;99.90
35894;DHT22;21994;48.204;16.516;2023-10-13T04:24:11;15.70;99.90
35894;DHT22;21994;48.204;16.516;2023-10-13T04:26:43;15.90;99.90
35894;DHT22;21994;48.204;16.516;2023-10-13T04:29:34;16.10;99.90
35894;DHT22;21994;48.204;16.516;2023-10-13T04:32:18;16.30;99.90
35894;DHT22;21994;48.204;16.516;2023-10-13T04:35:00;16.20;99.90
35894;DHT22;21994;48.204;16.516;2023-10-13T04:37:38;16.10;99.90
35894;DHT22;21994;48.204;16.516;2023-10-13T04:40:24;16.10;99.90
35894;DHT22;21994;48.204;16.516;2023-10-13T04:42:50;16.00;99.90
35894;DHT22;21994;48.204;16.516;2023-10-13T04:45:25;16.00;99.90
35894;DHT22;21994;48.204;16.516;2023-10-13T04:47:57;16.10;99.90
35894;DHT22;21994;48.204;16.516;2023-10-13T04:50:40;16.00;99.90
35894;DHT22;21994;48.204;16.516;2023-10-13T04:53:15;16.00;99.90
35894;DHT22;21994;48.204;16.516;2023-10-13T04:55:59;16.00;99.90
35894;DHT22;21994;48.204;16.516;2023-10-13T04:58:25;16.00;99.90
35894;DHT22;21994;48.204;16.516;2023-10-13T05:01:03;16.00;99.90
35894;DHT22;21994;48.204;16.516;2023-10-13T05:03:49;16.00;99.90
35894;DHT22;21994;48.204;16.516;2023-10-13T05:06:18;15.90;99.90
35894;DHT22;21994;48.204;16.516;2023-10-13T05:09:03;15.80;99.90
35894;DHT22;21994;48.204;16.516;2023-10-13T05:12:07;15.70;99.90
35894;DHT22;21994;48.204;16.516;2023-10-13T05:14:51;15.80;99.90
35894;DHT22;21994;48.204;16.516;2023-10-13T05:17:36;15.70;99.90
35894;DHT22;21994;48.204;16.516;2023-10-13T05:20:20;15.70;99.90
35894;DHT22;21994;48.204;16.516;2023-10-13T05:23:05;15.60;99.90
35894;DHT22;21994;48.204;16.516;2023-10-13T05:25:49;15.60;99.90
35894;DHT22;21994;48.204;16.516;2023-10-13T05:28:34;15.60;99.90
35894;DHT22;21994;48.204;16.516;2023-10-13T05:31:18;15.60;99.90
35894;DHT22;21994;48.204;16.516;2023-10-13T05:34:03;15.60;99.90
35894;DHT22;21994;48.204;16.516;2023-10-13T05:36:47;15.60;99.90
35894;DHT22;21994;48.204;16.516;2023-10-13T05:39:32;15.60;99.90
35894;DHT22;21994;48.204;16.516;2023-10-13T05:42:16;15.60;99.90
35894;DHT22;21994;48.204;16.516;2023-10-13T05:45:01;15.70;99.90
35894;DHT22;21994;48.204;16.516;2023-10-13T05:47:42;15.70;99.90
35894;DHT22;21994;48.204;16.516;2023-10-13T05:50:08;15.70;99.90
35894;DHT22;21994;48.204;16.516;2023-10-13T05:52:47;15.70;99.90
35894;DHT22;21994;48.204;16.516;2023-10-13T05:55:19;15.70;99.90
35894;DHT22;21994;48.204;16.516;2023-10-13T05:58:04;15.80;99.90
35894;DHT22;21994;48.204;16.516;2023-10-13T06:00:48;15.70;99.90
35894;DHT22;21994;48.204;16.516;2023-10-13T06:03:32;15.80;99.90
35894;DHT22;21994;48.204;16.516;2023-10-13T06:06:17;15.70;99.90
35894;DHT22;21994;48.204;16.516;2023-10-13T06:09:01;15.70;99.90
35894;DHT22;21994;48.204;16.516;2023-10-13T06:11:45;15.80;99.90
35894;DHT22;21994;48.204;16.516;2023-10-13T06:14:29;15.90;99.90
35894;DHT22;21994;48.204;16.516;2023-10-13T06:17:14;15.90;99.90
35894;DHT22;21994;48.204;16.516;2023-10-13T06:19:58;16.00;99.90
35894;DHT22;21994;48.204;16.516;2023-10-13T06:22:43;16.10;99.90
35894;DHT22;21994;48.204;16.516;2023-10-13T06:25:31;16.10;99.90
35894;DHT22;21994;48.204;16.516;2023-10-13T06:28:15;16.20;99.90
35894;DHT22;21994;48.204;16.516;2023-10-13T06:31:00;16.40;99.90
35894;DHT22;21994;48.204;16.516;2023-10-13T06:33:31;16.50;99.90
35894;DHT22;21994;48.204;16.516;2023-10-13T06:36:00;16.60;99.90
35894;DHT22;21994;48.204;16.516;2023-10-13T06:38:27;16.70;99.90
35894;DHT22;21994;48.204;16.516;2023-10-13T06:41:04;16.90;99.90
35894;DHT22;21994;48.204;16.516;2023-10-13T06:43:34;17.00;99.90
35894;DHT22;21994;48.204;16.516;2023-10-13T06:46:14;17.10;99.90
35894;DHT22;21994;48.204;16.516;2023-10-13T06:48:40;17.10;99.90
35894;DHT22;21994;48.204;16.516;2023-10-13T06:51:06;17.20;99.90
35894;DHT22;21994;48.204;16.516;2023-10-13T06:53:47;17.20;99.90
35894;DHT22;21994;48.204;16.516;2023-10-13T06:56:14;17.30;99.90
35894;DHT22;21994;48.204;16.516;2023-10-13T06:58:50;17.30;99.90
35894;DHT22;21994;48.204;16.516;2023-10-13T07:01:16;17.50;99.90
35894;DHT22;21994;48.204;16.516;2023-10-13T07:03:42;17.70;99.90
35894;DHT22;21994;48.204;16.516;2023-10-13T07:06:08;17.80;99.90
35894;DHT22;21994;48.204;16.516;2023-10-13T07:08:43;17.90;99.90
35894;DHT22;21994;48.204;16.516;2023-10-13T07:11:26;18.10;99.90
35894;DHT22;21994;48.204;16.516;2023-10-13T07:14:02;18.20;99.90
35894;DHT22;21994;48.204;16.516;2023-10-13T07:17:04;18.30;99.90
35894;DHT22;21994;48.204;16.516;2023-10-13T07:19:30;18.40;99.90
35894;DHT22;21994;48.204;16.516;2023-10-13T07:22:02;18.40;99.90
35894;DHT22;21994;48.204;16.516;2023-10-13T07:24:45;18.50;99.90
35894;DHT22;21994;48.204;16.516;2023-10-13T07:27:17;18.50;99.90
35894;DHT22;21994;48.204;16.516;2023-10-13T07:29:52;18.50;99.90
35894;DHT22;21994;48.204;16.516;2023-10-13T07:32:32;18.40;99.90
35894;DHT22;21994;48.204;16.516;2023-10-13T07:34:59;18.40;99.90
35894;DHT22;21994;48.204;16.516;2023-10-13T07:37:34;18.40;99.90
35894;DHT22;21994;48.204;16.516;2023-10-13T07:40:00;18.50;99.90
35894;DHT22;21994;48.204;16.516;2023-10-13T07:42:26;18.50;99.90
35894;DHT22;21994;48.204;16.516;2023-10-13T07:45:05;18.60;99.90
35894;DHT22;21994;48.204;16.516;2023-10-13T07:47:31;18.70;99.90
35894;DHT22;21994;48.204;16.516;2023-10-13T07:49:59;18.80;99.90
35894;DHT22;21994;48.204;16.516;2023-10-13T07:52:24;18.90;99.90
35894;DHT22;21994;48.204;16.516;2023-10-13T07:55:01;19.10;99.90
35894;DHT22;21994;48.204;16.516;2023-10-13T07:57:47;19.20;99.90
35894;DHT22;21994;48.204;16.516;2023-10-13T08:00:19;19.40;99.90
35894;DHT22;21994;48.204;16.516;2023-10-13T08:03:11;19.40;99.90
35894;DHT22;21994;48.204;16.516;2023-10-13T08:05:58;19.60;99.90
35894;DHT22;21994;48.204;16.516;2023-10-13T08:08:30;19.70;99.90
35894;DHT22;21994;48.204;16.516;2023-10-13T08:13:58;19.90;99.90
35894;DHT22;21994;48.204;16.516;2023-10-13T08:16:28;20.30;99.90
35894;DHT22;21994;48.204;16.516;2023-10-13T08:21:42;22.60;99.90
35894;DHT22;21994;48.204;16.516;2023-10-13T08:24:17;23.80;99.90
35894;DHT22;21994;48.204;16.516;2023-10-13T08:26:52;24.60;99.90
35894;DHT22;21994;48.204;16.516;2023-10-13T08:29:37;25.10;99.90
35894;DHT22;21994;48.204;16.516;2023-10-13T08:32:25;25.90;99.90
35894;DHT22;21994;48.204;16.516;2023-10-13T08:34:52;26.60;99.40
35894;DHT22;21994;48.204;16.516;2023-10-13T08:37:18;27.40;98.10
35894;DHT22;21994;48.204;16.516;2023-10-13T08:39:55;27.70;97.10
35894;DHT22;21994;48.204;16.516;2023-10-13T08:42:31;28.10;96.40
35894;DHT22;21994;48.204;16.516;2023-10-13T08:47:57;28.40;95.80
35894;DHT22;21994;48.204;16.516;2023-10-13T08:50:37;28.80;93.70
35894;DHT22;21994;48.204;16.516;2023-10-13T08:56:06;29.00;94.70
35894;DHT22;21994;48.204;16.516;2023-10-13T08:58:40;29.30;94.00
35894;DHT22;21994;48.204;16.516;2023-10-13T09:04:18;29.50;91.40
35894;DHT22;21994;48.204;16.516;2023-10-13T09:06:44;29.50;90.80
35894;DHT22;21994;48.204;16.516;2023-10-13T09:09:30;29.40;91.50
35894;DHT22;21994;48.204;16.516;2023-10-13T09:12:22;29.80;90.20
35894;DHT22;21994;48.204;16.516;2023-10-13T09:17:42;30.30;90.10
35894;DHT22;21994;48.204;16.516;2023-10-13T09:20:14;30.70;90.20
35894;DHT22;21994;48.204;16.516;2023-10-13T09:22:45;31.20;86.40
35894;DHT22;21994;48.204;16.516;2023-10-13T09:25:45;31.20;88.20
35894;DHT22;21994;48.204;16.516;2023-10-13T09:28:23;31.70;84.30
35894;DHT22;21994;48.204;16.516;2023-10-13T09:30:52;31.80;84.30
35894;DHT22;21994;48.204;16.516;2023-10-13T09:33:22;31.80;86.30
35894;DHT22;21994;48.204;16.516;2023-10-13T09:35:58;32.20;83.70
35894;DHT22;21994;48.204;16.516;2023-10-13T09:38:28;31.70;84.00
35894;DHT22;21994;48.204;16.516;2023-10-13T09:40:54;32.30;83.70
35894;DHT22;21994;48.204;16.516;2023-10-13T09:43:23;32.70;82.70
35894;DHT22;21994;48.204;16.516;2023-10-13T09:45:50;32.60;82.10
35894;DHT22;21994;48.204;16.516;2023-10-13T09:48:43;32.30;80.20
35894;DHT22;21994;48.204;16.516;2023-10-13T09:51:15;32.80;79.90
35894;DHT22;21994;48.204;16.516;2023-10-13T09:53:50;33.00;79.10
35894;DHT22;21994;48.204;16.516;2023-10-13T09:56:25;32.80;79.70
35894;DHT22;21994;48.204;16.516;2023-10-13T09:59:02;32.90;80.10
35894;DHT22;21994;48.204;16.516;2023-10-13T10:01:44;33.50;78.40
35894;DHT22;21994;48.204;16.516;2023-10-13T10:04:17;33.20;78.50
35894;DHT22;21994;48.204;16.516;2023-10-13T10:06:54;33.20;76.20
35894;DHT22;21994;48.204;16.516;2023-10-13T10:09:25;32.20;79.10
35894;DHT22;21994;48.204;16.516;2023-10-13T10:15:06;30.10;82.70
35894;DHT22;21994;48.204;16.516;2023-10-13T10:17:56;29.10;85.00
35894;DHT22;21994;48.204;16.516;2023-10-13T10:20:28;29.00;83.90
35894;DHT22;21994;48.204;16.516;2023-10-13T10:26:15;27.80;89.10
35894;DHT22;21994;48.204;16.516;2023-10-13T10:28:45;27.60;87.40
35894;DHT22;21994;48.204;16.516;2023-10-13T10:31:12;28.20;91.70
35894;DHT22;21994;48.204;16.516;2023-10-13T10:33:39;28.60;89.40
35894;DHT22;21994;48.204;16.516;2023-10-13T10:36:06;28.90;85.50
35894;DHT22;21994;48.204;16.516;2023-10-13T10:38:56;28.60;87.80
35894;DHT22;21994;48.204;16.516;2023-10-13T10:41:25;28.00;87.30
35894;DHT22;21994;48.204;16.516;2023-10-13T10:44:08;27.80;85.90
35894;DHT22;21994;48.204;16.516;2023-10-13T10:46:56;28.60;87.60
35894;DHT22;21994;48.204;16.516;2023-10-13T10:49:26;29.00;80.40
35894;DHT22;21994;48.204;16.516;2023-10-13T10:52:04;29.30;81.60
35894;DHT22;21994;48.204;16.516;2023-10-13T10:54:33;30.00;83.50
35894;DHT22;21994;48.204;16.516;2023-10-13T10:56:59;30.90;82.50
35894;DHT22;21994;48.204;16.516;2023-10-13T10:59:38;31.00;81.40
35894;DHT22;21994;48.204;16.516;2023-10-13T11:02:04;31.30;81.20
35894;DHT22;21994;48.204;16.516;2023-10-13T11:04:32;31.20;78.20
35894;DHT22;21994;48.204;16.516;2023-10-13T11:07:06;31.30;79.80
35894;DHT22;21994;48.204;16.516;2023-10-13T11:09:34;31.80;80.10
35894;DHT22;21994;48.204;16.516;2023-10-13T11:17:50;30.00;82.10
35894;DHT22;21994;48.204;16.516;2023-10-13T11:20:20;29.50;85.80
35894;DHT22;21994;48.204;16.516;2023-10-13T11:22:59;29.20;83.20
35894;DHT22;21994;48.204;16.516;2023-10-13T11:25:26;29.30;85.50
35894;DHT22;21994;48.204;16.516;2023-10-13T11:27:58;29.00;84.90
35894;DHT22;21994;48.204;16.516;2023-10-13T11:30:25;28.80;85.70
35894;DHT22;21994;48.204;16.516;2023-10-13T11:32:57;28.90;84.20
35894;DHT22;21994;48.204;16.516;2023-10-13T11:35:34;28.90;85.20
35894;DHT22;21994;48.204;16.516;2023-10-13T11:38:29;28.90;85.90
35894;DHT22;21994;48.204;16.516;2023-10-13T11:41:11;29.10;84.10
35894;DHT22;21994;48.204;16.516;2023-10-13T11:43:50;29.20;85.50
35894;DHT22;21994;48.204;16.516;2023-10-13T11:46:17;29.20;87.10
35894;DHT22;21994;48.204;16.516;2023-10-13T11:49:08;29.30;81.60
35894;DHT22;21994;48.204;16.516;2023-10-13T11:51:47;29.20;84.40
35894;DHT22;21994;48.204;16.516;2023-10-13T11:54:17;29.20;85.10
35894;DHT22;21994;48.204;16.516;2023-10-13T11:56:44;29.20;85.20
35894;DHT22;21994;48.204;16.516;2023-10-13T11:59:11;29.20;84.80
35894;DHT22;21994;48.204;16.516;2023-10-13T12:01:44;29.10;84.20
35894;DHT22;21994;48.204;16.516;2023-10-13T12:04:29;29.00;84.80
35894;DHT22;21994;48.204;16.516;2023-10-13T12:07:19;29.00;88.10
35894;DHT22;21994;48.204;16.516;2023-10-13T12:10:07;29.10;86.50
35894;DHT22;21994;48.204;16.516;2023-10-13T12:12:41;29.30;86.30
35894;DHT22;21994;48.204;16.516;2023-10-13T12:15:09;29.40;84.10
35894;DHT22;21994;48.204;16.516;2023-10-13T12:17:35;29.20;84.40
35894;DHT22;21994;48.204;16.516;2023-10-13T12:20:03;29.10;85.50
35894;DHT22;21994;48.204;16.516;2023-10-13T12:22:35;29.20;89.10
35894;DHT22;21994;48.204;16.516;2023-10-13T12:25:20;29.20;87.50
35894;DHT22;21994;48.204;16.516;2023-10-13T12:27:58;29.20;91.00
35894;DHT22;21994;48.204;16.516;2023-10-13T12:30:41;29.00;89.40
35894;DHT22;21994;48.204;16.516;2023-10-13T12:33:19;29.00;91.40
35894;DHT22;21994;48.204;16.516;2023-10-13T12:36:02;29.00;90.50
35894;DHT22;21994;48.204;16.516;2023-10-13T12:38:32;29.00;90.50
35894;DHT22;21994;48.204;16.516;2023-10-13T12:41:14;29.00;90.90
35894;DHT22;21994;48.204;16.516;2023-10-13T12:43:58;29.10;89.60
35894;DHT22;21994;48.204;16.516;2023-10-13T12:46:42;29.10;90.00
35894;DHT22;21994;48.204;16.516;2023-10-13T12:49:27;29.20;89.20
35894;DHT22;21994;48.204;16.516;2023-10-13T12:52:16;29.30;91.30
35894;DHT22;21994;48.204;16.516;2023-10-13T12:54:45;29.60;89.10
35894;DHT22;21994;48.204;16.516;2023-10-13T12:57:27;29.60;87.10
35894;DHT22;21994;48.204;16.516;2023-10-13T12:59:53;29.30;90.30
35894;DHT22;21994;48.204;16.516;2023-10-13T13:02:23;29.20;87.00
35894;DHT22;21994;48.204;16.516;2023-10-13T13:04:53;29.10;88.60
35894;DHT22;21994;48.204;16.516;2023-10-13T13:07:42;29.10;87.40
35894;DHT22;21994;48.204;16.516;2023-10-13T13:10:12;29.10;90.20
35894;DHT22;21994;48.204;16.516;2023-10-13T13:12:41;29.20;86.00
35894;DHT22;21994;48.204;16.516;2023-10-13T13:15:08;29.30;86.90
35894;DHT22;21994;48.204;16.516;2023-10-13T13:17:35;29.40;86.70
35894;DHT22;21994;48.204;16.516;2023-10-13T13:20:01;29.50;86.40
35894;DHT22;21994;48.204;16.516;2023-10-13T13:22:39;29.30;89.90
35894;DHT22;21994;48.204;16.516;2023-10-13T13:25:05;29.10;88.00
35894;DHT22;21994;48.204;16.516;2023-10-13T13:27:36;29.10;87.70
35894;DHT22;21994;48.204;16.516;2023-10-13T13:30:03;28.90;88.20
35894;DHT22;21994;48.204;16.516;2023-10-13T13:32:38;28.80;86.80
35894;DHT22;21994;48.204;16.516;2023-10-13T13:35:06;28.60;87.20
35894;DHT22;21994;48.204;16.516;2023-10-13T13:37:33;28.80;90.00
35894;DHT22;21994;48.204;16.516;2023-10-13T13:39:59;29.10;88.10
35894;DHT22;21994;48.204;16.516;2023-10-13T13:42:42;29.30;86.30
35894;DHT22;21994;48.204;16.516;2023-10-13T13:45:14;29.50;85.70
35894;DHT22;21994;48.204;16.516;2023-10-13T13:47:57;29.60;87.00
35894;DHT22;21994;48.204;16.516;2023-10-13T13:50:24;29.60;85.50
35894;DHT22;21994;48.204;16.516;2023-10-13T13:52:53;29.70;86.30
35894;DHT22;21994;48.204;16.516;2023-10-13T13:55:26;29.70;86.80
35894;DHT22;21994;48.204;16.516;2023-10-13T13:57:56;29.60;85.20
35894;DHT22;21994;48.204;16.516;2023-10-13T14:00:23;29.80;83.50
35894;DHT22;21994;48.204;16.516;2023-10-13T14:03:08;29.70;83.20
35894;DHT22;21994;48.204;16.516;2023-10-13T14:05:41;29.70;84.60
35894;DHT22;21994;48.204;16.516;2023-10-13T14:08:07;29.80;84.80
35894;DHT22;21994;48.204;16.516;2023-10-13T14:10:38;29.80;83.70
35894;DHT22;21994;48.204;16.516;2023-10-13T14:13:22;29.70;82.50
35894;DHT22;21994;48.204;16.516;2023-10-13T14:16:08;29.60;82.60
35894;DHT22;21994;48.204;16.516;2023-10-13T14:18:44;29.60;81.90
35894;DHT22;21994;48.204;16.516;2023-10-13T14:21:13;29.50;83.60
35894;DHT22;21994;48.204;16.516;2023-10-13T14:23:45;29.60;82.80
35894;DHT22;21994;48.204;16.516;2023-10-13T14:26:13;29.50;82.20
35894;DHT22;21994;48.204;16.516;2023-10-13T14:28:50;29.60;82.40
35894;DHT22;21994;48.204;16.516;2023-10-13T14:31:27;29.30;81.00
35894;DHT22;21994;48.204;16.516;2023-10-13T14:33:53;28.90;83.40
35894;DHT22;21994;48.204;16.516;2023-10-13T14:36:19;28.80;82.70
35894;DHT22;21994;48.204;16.516;2023-10-13T14:38:48;28.50;82.40
35894;DHT22;21994;48.204;16.516;2023-10-13T14:41:17;28.30;82.90
35894;DHT22;21994;48.204;16.516;2023-10-13T14:43:46;27.80;83.30
35894;DHT22;21994;48.204;16.516;2023-10-13T14:46:15;27.50;85.00
35894;DHT22;21994;48.204;16.516;2023-10-13T14:48:53;27.20;85.10
35894;DHT22;21994;48.204;16.516;2023-10-13T14:51:20;27.00;85.40
35894;DHT22;21994;48.204;16.516;2023-10-13T14:53:46;26.70;85.80
35894;DHT22;21994;48.204;16.516;2023-10-13T14:56:13;26.60;87.00
35894;DHT22;21994;48.204;16.516;2023-10-13T14:58:39;26.50;87.30
35894;DHT22;21994;48.204;16.516;2023-10-13T15:01:15;26.40;86.80
35894;DHT22;21994;48.204;16.516;2023-10-13T15:06:15;26.10;88.40
35894;DHT22;21994;48.204;16.516;2023-10-13T15:08:51;26.00;91.00
35894;DHT22;21994;48.204;16.516;2023-10-13T15:11:20;26.00;90.30
35894;DHT22;21994;48.204;16.516;2023-10-13T15:13:46;26.10;90.10
35894;DHT22;21994;48.204;16.516;2023-10-13T15:16:23;26.00;89.10
35894;DHT22;21994;48.204;16.516;2023-10-13T15:18:50;26.20;89.00
35894;DHT22;21994;48.204;16.516;2023-10-13T15:21:22;26.00;89.60
35894;DHT22;21994;48.204;16.516;2023-10-13T15:23:52;26.00;90.50
35894;DHT22;21994;48.204;16.516;2023-10-13T15:26:21;25.80;90.10
35894;DHT22;21994;48.204;16.516;2023-10-13T15:28:49;25.70;90.30
35894;DHT22;21994;48.204;16.516;2023-10-13T15:31:21;25.40;90.10
35894;DHT22;21994;48.204;16.516;2023-10-13T15:34:05;25.10;90.70
35894;DHT22;21994;48.204;16.516;2023-10-13T15:36:40;24.90;91.00
35894;DHT22;21994;48.204;16.516;2023-10-13T15:39:08;24.50;90.70
35894;DHT22;21994;48.204;16.516;2023-10-13T15:41:36;24.30;92.60
35894;DHT22;21994;48.204;16.516;2023-10-13T15:44:03;23.90;92.40
35894;DHT22;21994;48.204;16.516;2023-10-13T15:46:35;23.70;91.90
35894;DHT22;21994;48.204;16.516;2023-10-13T15:49:01;23.50;93.10
35894;DHT22;21994;48.204;16.516;2023-10-13T15:51:34;23.40;92.90
35894;DHT22;21994;48.204;16.516;2023-10-13T15:54:03;23.10;94.00
35894;DHT22;21994;48.204;16.516;2023-10-13T15:56:30;22.90;94.30
35894;DHT22;21994;48.204;16.516;2023-10-13T15:58:58;22.60;94.70
35894;DHT22;21994;48.204;16.516;2023-10-13T16:01:26;22.40;95.60
35894;DHT22;21994;48.204;16.516;2023-10-13T16:03:53;22.20;95.50
35894;DHT22;21994;48.204;16.516;2023-10-13T16:06:19;22.20;94.50
35894;DHT22;21994;48.204;16.516;2023-10-13T16:08:47;22.20;94.10
35894;DHT22;21994;48.204;16.516;2023-10-13T16:11:14;22.00;95.10
35894;DHT22;21994;48.204;16.516;2023-10-13T16:13:48;21.80;95.60
35894;DHT22;21994;48.204;16.516;2023-10-13T16:16:17;21.60;96.10
35894;DHT22;21994;48.204;16.516;2023-10-13T16:18:47;21.50;95.90
35894;DHT22;21994;48.204;16.516;2023-10-13T16:21:13;21.30;95.60
35894;DHT22;21994;48.204;16.516;2023-10-13T16:23:43;21.10;96.50
35894;DHT22;21994;48.204;16.516;2023-10-13T16:26:14;20.90;96.90
35894;DHT22;21994;48.204;16.516;2023-10-13T16:28:40;20.80;97.10
35894;DHT22;21994;48.204;16.516;2023-10-13T16:31:06;20.70;96.20